Time;durP1;ratioP1;P1;durP2;ratioP2;P2;SDS_P1;SDS_P2;PMS_P1;PMS_P2;Temp;Humidity;BMP_temperature;BMP_pressure;BME280_temperature;BME280_humidity;BME280_pressure;Samples;Min_cycle;Max_cycle;Signal;HPM_P1;HPM_P2
2023/01/10 00:02:34;;;;;;;2.42;0.50;;;7.40;99.90;;;;;;10082473;28;20036;-67
2023/01/10 00:07:25;;;;;;;0.77;0.77;;;7.40;99.90;;;;;;10093183;28;20518;-66
2023/01/10 00:17:24;;;;;;;2.33;0.80;;;7.50;99.90;;;;;;10097205;28;20155;-67
2023/01/10 00:22:17;;;;;;;1.90;0.45;;;7.50;99.90;;;;;;10092964;28;20453;-68
2023/01/10 00:27:11;;;;;;;1.70;0.60;;;7.50;99.90;;;;;;10094183;28;20491;-69
2023/01/10 00:32:02;;;;;;;1.02;0.32;;;7.50;99.90;;;;;;10081046;28;20010;-69
2023/01/10 00:36:52;;;;;;;4.25;0.52;;;7.50;99.90;;;;;;10096056;28;20036;-67
2023/01/10 00:46:53;;;;;;;5.05;1.02;;;7.50;99.90;;;;;;10091783;28;20047;-66
2023/01/10 00:51:44;;;;;;;2.85;1.05;;;7.50;99.90;;;;;;10092603;28;20543;-69
2023/01/10 00:56:35;;;;;;;2.20;0.70;;;7.50;99.90;;;;;;10085365;28;20021;-66
2023/01/10 01:01:25;;;;;;;1.17;0.98;;;7.50;99.90;;;;;;10083791;28;20025;-66
2023/01/10 01:06:16;;;;;;;3.10;0.52;;;7.60;99.90;;;;;;10087504;28;20033;-67
2023/01/10 01:11:06;;;;;;;0.68;0.55;;;7.60;99.90;;;;;;10092352;28;20055;-67
2023/01/10 01:15:58;;;;;;;4.68;1.10;;;7.60;99.90;;;;;;10084040;28;20467;-67
2023/01/10 01:20:53;;;;;;;4.90;1.33;;;7.50;99.90;;;;;;10092355;28;20055;-66
2023/01/10 01:25:44;;;;;;;1.90;1.27;;;7.50;99.90;;;;;;10089130;28;20050;-66
2023/01/10 01:30:35;;;;;;;1.80;0.80;;;7.50;99.90;;;;;;10090472;28;20463;-66
2023/01/10 01:35:25;;;;;;;5.45;1.70;;;7.60;99.90;;;;;;10092217;28;20498;-65
2023/01/10 01:40:21;;;;;;;4.47;1.10;;;7.60;99.90;;;;;;10084386;28;20056;-66
2023/01/10 01:45:23;;;;;;;4.82;1.48;;;7.60;99.90;;;;;;10101531;28;20032;-67
2023/01/10 01:50:24;;;;;;;2.83;1.30;;;7.60;99.90;;;;;;10097200;28;20450;-67
2023/01/10 01:55:15;;;;;;;5.35;1.67;;;7.60;99.90;;;;;;10094262;28;20032;-66
2023/01/10 02:00:06;;;;;;;3.03;1.33;;;7.50;99.90;;;;;;10098582;28;20107;-70
2023/01/10 02:05:09;;;;;;;4.72;1.27;;;7.60;99.90;;;;;;10089265;28;20056;-67
2023/01/10 02:10:14;;;;;;;4.85;1.88;;;7.50;99.90;;;;;;10092542;28;20067;-67
2023/01/10 02:15:06;;;;;;;5.20;1.25;;;7.50;99.90;;;;;;10098790;28;20082;-65
2023/01/10 02:20:02;;;;;;;3.40;2.15;;;7.50;99.90;;;;;;10097958;28;20060;-66
2023/01/10 02:25:00;;;;;;;;;;;7.50;99.90;;;;;;10096121;28;20484;-67
2023/01/10 02:30:14;;;;;;;7.30;1.35;;;7.40;99.90;;;;;;10095961;28;19912;-68
2023/01/10 02:35:12;;;;;;;5.53;1.02;;;7.50;99.90;;;;;;10091848;28;20025;-67
2023/01/10 02:40:38;;;;;;;4.18;1.70;;;7.50;99.90;;;;;;10091101;28;20059;-68
2023/01/10 02:45:36;;;;;;;6.57;1.37;;;7.40;99.90;;;;;;10054374;28;20037;-67
2023/01/10 02:50:35;;;;;;;3.55;2.30;;;7.40;99.90;;;;;;10096533;28;20483;-67
2023/01/10 02:55:35;;;;;;;3.28;1.00;;;7.40;99.90;;;;;;10091898;28;20091;-68
2023/01/10 03:00:49;;;;;;;8.02;1.50;;;7.40;99.90;;;;;;10085224;28;20103;-68
2023/01/10 03:05:43;;;;;;;2.58;1.60;;;7.40;99.90;;;;;;10065447;28;20037;-72
2023/01/10 03:10:51;;;;;;;1.95;1.08;;;7.40;99.90;;;;;;10081251;28;20037;-68
2023/01/10 03:15:44;;;;;;;4.65;1.90;;;7.40;99.90;;;;;;10084309;28;20025;-68
2023/01/10 03:20:37;;;;;;;5.10;1.65;;;7.40;99.90;;;;;;10099218;28;20033;-66
2023/01/10 03:25:33;;;;;;;4.55;2.00;;;7.40;99.90;;;;;;10091077;28;20491;-65
2023/01/10 03:30:37;;;;;;;2.22;1.52;;;7.30;99.90;;;;;;10095961;28;20025;-66
2023/01/10 03:35:43;;;;;;;4.30;1.73;;;7.30;99.90;;;;;;10091425;28;20171;-67
2023/01/10 03:40:58;;;;;;;4.20;1.58;;;7.30;99.90;;;;;;10078834;28;20043;-67
2023/01/10 03:45:58;;;;;;;2.72;1.60;;;7.20;99.90;;;;;;10096242;28;20449;-67
2023/01/10 03:50:50;;;;;;;2.63;1.20;;;7.10;99.90;;;;;;10090494;28;20033;-65
2023/01/10 03:55:42;;;;;;;3.58;0.90;;;7.10;99.90;;;;;;10079261;28;20526;-65
2023/01/10 04:00:33;;;;;;;3.92;1.10;;;7.10;99.90;;;;;;10088114;28;20280;-66
2023/01/10 04:05:25;;;;;;;3.60;1.40;;;7.10;99.90;;;;;;10094211;28;20271;-66
2023/01/10 04:10:16;;;;;;;4.05;1.42;;;7.10;99.90;;;;;;10092141;28;20021;-67
2023/01/10 04:15:07;;;;;;;3.42;1.15;;;7.20;99.90;;;;;;10084129;28;20412;-68
2023/01/10 04:19:57;;;;;;;2.63;1.30;;;7.30;99.90;;;;;;10094825;28;20033;-66
2023/01/10 04:24:50;;;;;;;4.68;0.90;;;7.40;99.90;;;;;;10091118;28;20026;-66
2023/01/10 04:29:41;;;;;;;2.63;0.90;;;7.40;99.90;;;;;;10081653;28;20361;-68
2023/01/10 04:34:31;;;;;;;3.42;2.10;;;7.30;99.90;;;;;;10089793;28;20562;-66
2023/01/10 04:39:23;;;;;;;8.10;1.50;;;7.20;99.90;;;;;;10095953;28;20115;-66
2023/01/10 04:44:14;;;;;;;1.45;0.88;;;7.20;99.90;;;;;;10096089;28;20036;-66
2023/01/10 04:49:05;;;;;;;7.53;1.45;;;7.20;99.90;;;;;;10097286;28;20036;-68
2023/01/10 04:53:55;;;;;;;3.78;0.93;;;7.20;99.90;;;;;;10095537;28;20043;-66
2023/01/10 04:58:47;;;;;;;6.07;1.25;;;7.20;99.90;;;;;;10096234;28;20037;-65
2023/01/10 05:03:38;;;;;;;2.78;1.67;;;7.30;99.90;;;;;;10095608;28;20028;-66
2023/01/10 05:08:28;;;;;;;5.78;1.30;;;7.30;99.90;;;;;;10095842;28;20035;-66
2023/01/10 05:13:19;;;;;;;3.75;1.55;;;7.40;99.90;;;;;;10104843;28;20051;-68
2023/01/10 05:18:10;;;;;;;5.82;1.77;;;7.50;99.90;;;;;;10104216;28;20111;-66
2023/01/10 05:23:00;;;;;;;4.60;1.42;;;7.40;99.90;;;;;;10104595;28;20462;-65
2023/01/10 05:27:51;;;;;;;11.95;1.42;;;7.50;99.90;;;;;;10103983;28;20031;-65
2023/01/10 05:32:43;;;;;;;2.85;1.38;;;7.50;99.90;;;;;;10098650;28;20037;-66
2023/01/10 05:37:34;;;;;;;3.92;1.00;;;7.50;99.90;;;;;;10101256;28;20620;-65
2023/01/10 05:42:25;;;;;;;2.00;0.88;;;7.40;99.90;;;;;;10090817;28;20045;-66
2023/01/10 05:47:15;;;;;;;2.70;0.95;;;7.50;99.90;;;;;;10098947;28;20033;-64
2023/01/10 05:52:06;;;;;;;3.80;1.00;;;7.40;99.90;;;;;;10099763;28;20067;-65
2023/01/10 05:56:57;;;;;;;3.40;1.27;;;7.40;99.90;;;;;;10096574;28;20196;-67
2023/01/10 06:01:48;;;;;;;4.88;1.10;;;7.30;99.90;;;;;;10094092;28;20021;-65
2023/01/10 06:06:38;;;;;;;3.95;1.67;;;7.20;99.90;;;;;;10091565;28;20094;-68
2023/01/10 06:11:29;;;;;;;3.03;1.60;;;7.20;99.90;;;;;;10088277;28;20161;-66
2023/01/10 06:16:20;;;;;;;1.20;0.85;;;7.10;99.90;;;;;;10094946;28;20067;-64
2023/01/10 06:21:11;;;;;;;1.85;0.80;;;7.00;99.90;;;;;;10084861;28;20044;-66
2023/01/10 06:26:01;;;;;;;1.85;0.93;;;6.90;99.90;;;;;;10097669;28;20487;-68
2023/01/10 06:30:52;;;;;;;1.85;0.93;;;6.90;99.90;;;;;;10098239;28;20077;-64
2023/01/10 06:35:45;;;;;;;3.25;1.25;;;6.80;99.90;;;;;;10095119;28;20017;-65
2023/01/10 06:40:36;;;;;;;2.13;0.95;;;6.80;99.90;;;;;;10090895;28;20503;-65
2023/01/10 06:45:27;;;;;;;2.10;1.17;;;6.90;99.90;;;;;;10089650;28;20029;-65
2023/01/10 06:50:17;;;;;;;2.85;1.10;;;6.90;99.90;;;;;;10094827;28;20036;-67
2023/01/10 06:55:08;;;;;;;2.50;1.30;;;6.90;99.90;;;;;;10095463;28;20597;-65
2023/01/10 06:59:59;;;;;;;3.47;0.90;;;6.90;99.90;;;;;;10085650;28;20037;-67
2023/01/10 07:04:49;;;;;;;4.18;1.25;;;6.90;99.90;;;;;;10096617;28;20017;-66
2023/01/10 07:09:40;;;;;;;4.53;1.15;;;7.00;99.90;;;;;;10080696;28;20021;-65
2023/01/10 07:14:31;;;;;;;6.13;1.42;;;7.00;99.90;;;;;;10098041;28;20036;-67
2023/01/10 07:19:22;;;;;;;4.97;1.75;;;7.00;99.90;;;;;;10085720;28;20098;-65
2023/01/10 07:24:13;;;;;;;3.13;1.83;;;7.10;99.90;;;;;;10097117;28;20075;-65
2023/01/10 07:29:03;;;;;;;5.72;1.98;;;7.10;99.90;;;;;;10095366;28;20515;-66
2023/01/10 07:33:54;;;;;;;3.70;1.95;;;7.10;99.90;;;;;;10090962;28;20021;-65
2023/01/10 07:38:45;;;;;;;3.97;1.33;;;7.10;99.90;;;;;;10096532;28;20040;-63
2023/01/10 07:43:35;;;;;;;2.72;1.33;;;7.00;99.90;;;;;;10095946;28;20037;-65
2023/01/10 07:48:26;;;;;;;2.47;1.00;;;7.00;99.90;;;;;;10096146;28;20033;-66
2023/01/10 07:53:17;;;;;;;6.65;1.10;;;7.00;99.90;;;;;;10093403;28;20021;-65
2023/01/10 07:58:08;;;;;;;2.75;1.00;;;7.10;99.90;;;;;;10094921;28;20403;-68
2023/01/10 08:02:58;;;;;;;5.78;1.38;;;7.10;99.90;;;;;;10092836;28;20033;-66
2023/01/10 08:07:49;;;;;;;7.43;1.48;;;7.10;99.90;;;;;;10095506;28;20017;-66
2023/01/10 08:12:40;;;;;;;2.50;1.10;;;7.20;99.90;;;;;;10139122;22;20052;-72
2023/01/10 08:17:34;;;;;;;2.17;1.00;;;7.20;99.90;;;;;;10136901;28;20029;-65
2023/01/10 08:22:24;;;;;;;2.33;0.93;;;7.30;99.90;;;;;;10135869;28;20435;-62
2023/01/10 08:27:15;;;;;;;4.97;1.48;;;7.30;99.90;;;;;;10136256;28;20013;-66
2023/01/10 08:32:05;;;;;;;2.58;1.30;;;7.20;99.90;;;;;;10132855;28;20025;-64
2023/01/10 08:36:56;;;;;;;7.85;2.35;;;7.30;99.90;;;;;;10135694;28;20033;-66
2023/01/10 08:41:48;;;;;;;2.55;1.10;;;7.30;99.90;;;;;;10136717;28;20037;-66
2023/01/10 08:46:38;;;;;;;5.10;0.85;;;7.40;99.90;;;;;;10135820;28;20111;-66
2023/01/10 08:51:29;;;;;;;1.90;1.00;;;7.40;99.90;;;;;;10133742;28;20166;-68
2023/01/10 08:56:19;;;;;;;3.95;1.35;;;7.50;99.90;;;;;;10137327;28;20020;-67
2023/01/10 09:01:11;;;;;;;3.17;1.10;;;7.50;99.90;;;;;;10136248;28;20045;-66
2023/01/10 09:06:02;;;;;;;3.05;1.52;;;7.40;99.90;;;;;;10133448;28;20071;-65
2023/01/10 09:10:53;;;;;;;4.38;1.23;;;7.40;99.90;;;;;;10128288;28;20041;-69
2023/01/10 09:15:44;;;;;;;3.28;1.30;;;7.40;99.90;;;;;;10129924;28;20071;-69
2023/01/10 09:20:37;;;;;;;3.95;2.47;;;7.50;99.90;;;;;;10132385;28;20071;-68
2023/01/10 09:25:28;;;;;;;2.35;1.10;;;7.60;99.90;;;;;;10130031;28;20521;-69
2023/01/10 09:30:18;;;;;;;6.78;2.95;;;7.60;99.90;;;;;;10131386;28;20029;-70
2023/01/10 09:35:09;;;;;;;2.60;1.17;;;7.60;99.90;;;;;;10130329;28;20029;-68
2023/01/10 09:40:00;;;;;;;3.30;1.10;;;7.50;99.90;;;;;;10129496;28;20036;-65
2023/01/10 09:45:22;;;;;;;3.30;1.23;;;7.60;99.90;;;;;;10132036;28;20025;-71
2023/01/10 09:50:14;;;;;;;4.90;1.45;;;7.60;99.90;;;;;;10129254;28;20045;-69
2023/01/10 09:55:28;;;;;;;2.58;1.05;;;7.70;99.90;;;;;;10133379;28;20111;-69
2023/01/10 10:00:22;;;;;;;1.90;1.10;;;7.70;99.90;;;;;;10140842;28;20032;-70
2023/01/10 10:05:23;;;;;;;3.45;1.05;;;7.80;99.90;;;;;;10140001;28;20450;-72
2023/01/10 10:10:21;;;;;;;3.17;1.45;;;7.90;99.90;;;;;;10138772;28;20301;-70
2023/01/10 10:15:24;;;;;;;6.05;1.55;;;7.80;99.90;;;;;;10137809;28;20445;-72
2023/01/10 10:20:52;;;;;;;3.65;1.50;;;7.90;99.90;;;;;;10138656;28;20520;-71
2023/01/10 10:26:18;;;;;;;3.47;1.25;;;7.90;99.90;;;;;;10139594;28;20025;-74
2023/01/10 10:31:28;;;;;;;3.28;1.50;;;7.90;99.90;;;;;;10135485;28;20078;-67
2023/01/10 10:36:42;;;;;;;5.72;1.63;;;7.90;99.90;;;;;;10139199;28;20036;-75
2023/01/10 10:41:39;;;;;;;3.92;1.52;;;7.90;99.90;;;;;;10134021;28;20391;-66
2023/01/10 10:46:31;;;;;;;2.80;1.38;;;8.10;99.90;;;;;;10137383;28;20519;-70
2023/01/10 10:51:35;;;;;;;7.05;1.63;;;8.20;99.90;;;;;;10134264;28;20379;-71
2023/01/10 10:56:26;;;;;;;4.03;1.35;;;8.20;99.90;;;;;;10132634;28;20424;-67
2023/01/10 11:01:18;;;;;;;6.32;1.52;;;8.30;99.90;;;;;;10139779;28;20102;-68
2023/01/10 11:06:09;;;;;;;2.30;1.92;;;8.40;99.90;;;;;;10131483;28;20067;-68
2023/01/10 11:11:02;;;;;;;9.32;2.25;;;8.50;99.90;;;;;;10117271;28;20083;-73
2023/01/10 11:15:52;;;;;;;3.85;1.30;;;8.60;99.90;;;;;;10136155;28;20490;-68
2023/01/10 11:21:02;;;;;;;3.30;2.13;;;8.70;99.90;;;;;;10136206;28;20029;-67
2023/01/10 11:25:53;;;;;;;4.97;2.53;;;8.80;99.90;;;;;;10135507;28;20052;-66
2023/01/10 11:30:47;;;;;;;4.10;2.22;;;8.90;99.90;;;;;;10135165;28;20060;-69
2023/01/10 11:35:40;;;;;;;6.22;1.55;;;9.10;99.90;;;;;;10132820;28;20048;-66
2023/01/10 11:40:38;;;;;;;2.72;1.25;;;9.10;99.90;;;;;;10139630;28;20040;-71
2023/01/10 11:45:34;;;;;;;3.50;1.67;;;9.20;99.90;;;;;;10140078;28;20035;-67
2023/01/10 11:50:32;;;;;;;3.50;1.45;;;9.30;99.90;;;;;;10136800;28;20047;-68
2023/01/10 11:55:26;;;;;;;5.10;1.80;;;9.10;99.90;;;;;;10142081;28;20094;-67
2023/01/10 12:00:17;;;;;;;6.63;1.50;;;9.10;99.90;;;;;;10138980;28;20029;-67
2023/01/10 12:05:16;;;;;;;6.43;1.52;;;9.00;99.90;;;;;;10140112;28;20039;-68
2023/01/10 12:10:20;;;;;;;2.97;1.77;;;9.00;99.90;;;;;;10134879;28;20107;-68
2023/01/10 12:15:21;;;;;;;4.55;1.75;;;9.00;99.90;;;;;;10135074;28;20029;-70
2023/01/10 12:20:14;;;;;;;6.45;1.63;;;9.10;99.90;;;;;;10136162;28;20340;-67
2023/01/10 12:25:38;;;;;;;6.63;1.90;;;9.20;99.90;;;;;;10136275;28;20086;-67
2023/01/10 12:30:42;;;;;;;3.05;0.90;;;9.30;99.90;;;;;;10131405;28;20094;-67
2023/01/10 12:35:45;;;;;;;2.40;1.95;;;9.40;99.90;;;;;;10145163;28;20020;-69
2023/01/10 12:40:59;;;;;;;2.22;1.42;;;9.50;99.90;;;;;;10136798;28;20021;-70
2023/01/10 12:45:58;;;;;;;5.28;1.20;;;9.50;99.90;;;;;;10136708;28;20056;-66
2023/01/10 12:50:58;;;;;;;5.70;1.50;;;9.40;99.90;;;;;;10133685;28;20032;-67
2023/01/10 12:55:53;;;;;;;3.13;1.08;;;9.50;99.90;;;;;;10128834;28;20024;-73
2023/01/10 13:00:47;;;;;;;3.30;1.23;;;9.70;99.90;;;;;;10128904;28;20294;-74
2023/01/10 13:05:37;;;;;;;3.95;1.63;;;9.90;99.90;;;;;;10134364;28;20031;-75
2023/01/10 13:10:29;;;;;;;2.63;1.25;;;10.00;99.90;;;;;;10124942;28;20451;-72
2023/01/10 13:15:26;;;;;;;1.13;0.88;;;10.10;99.90;;;;;;10129423;28;20062;-72
2023/01/10 13:20:26;;;;;;;2.03;0.80;;;10.10;99.90;;;;;;10134356;28;20021;-73
2023/01/10 13:25:21;;;;;;;3.15;1.10;;;10.10;99.90;;;;;;10132455;28;20476;-72
2023/01/10 13:30:36;;;;;;;0.50;0.50;;;10.00;99.90;;;;;;10129879;28;20185;-70
2023/01/10 13:35:28;;;;;;;3.33;0.85;;;10.00;99.90;;;;;;10141193;28;20273;-71
2023/01/10 13:40:29;;;;;;;2.05;0.93;;;10.00;99.90;;;;;;10128401;28;20041;-67
2023/01/10 13:45:19;;;;;;;3.38;1.08;;;9.90;99.90;;;;;;10142324;28;20035;-68
2023/01/10 13:50:27;;;;;;;1.67;0.80;;;10.00;99.90;;;;;;10138679;28;20024;-69
2023/01/10 13:55:34;;;;;;;3.78;1.67;;;9.90;99.90;;;;;;10133557;28;20479;-73
2023/01/10 14:06:11;;;;;;;2.63;1.08;;;9.80;99.90;;;;;;10140653;28;20981;-71
2023/01/10 14:11:07;;;;;;;2.90;0.77;;;10.00;99.90;;;;;;10139992;28;20057;-69
2023/01/10 14:15:58;;;;;;;3.08;1.30;;;9.90;99.90;;;;;;10140263;28;20025;-66
2023/01/10 14:21:20;;;;;;;2.20;0.90;;;9.80;99.90;;;;;;10140347;28;20029;-67
2023/01/10 14:26:31;;;;;;;2.92;1.05;;;9.80;99.90;;;;;;10136385;28;20028;-72
2023/01/10 14:31:24;;;;;;;1.70;0.77;;;9.70;99.90;;;;;;10139585;28;20035;-73
2023/01/10 14:36:21;;;;;;;3.13;1.17;;;9.80;99.90;;;;;;10137427;28;20055;-73
2023/01/10 14:41:18;;;;;;;1.92;1.10;;;9.90;99.90;;;;;;10135751;28;20032;-73
2023/01/10 14:46:16;;;;;;;2.13;1.02;;;9.80;99.90;;;;;;10137756;28;20020;-70
2023/01/10 14:51:26;;;;;;;7.15;2.58;;;9.70;99.90;;;;;;10132486;28;20040;-69
2023/01/10 14:56:22;;;;;;;2.95;0.80;;;9.50;99.90;;;;;;10136414;28;20020;-68
2023/01/10 15:01:23;;;;;;;2.63;0.73;;;9.30;99.90;;;;;;10133873;28;20155;-66
2023/01/10 15:06:14;;;;;;;3.13;1.10;;;9.30;99.90;;;;;;10135886;28;20027;-67
2023/01/10 15:11:11;;;;;;;2.33;1.10;;;9.30;99.90;;;;;;10136486;28;20128;-72
2023/01/10 15:16:04;;;;;;;4.15;1.40;;;9.30;99.90;;;;;;10132617;28;20021;-71
2023/01/10 15:20:56;;;;;;;6.50;1.50;;;9.20;99.90;;;;;;10135695;28;20066;-71
2023/01/10 15:25:56;;;;;;;3.85;1.20;;;9.10;99.90;;;;;;10135534;28;20033;-68
2023/01/10 15:30:47;;;;;;;1.50;1.20;;;9.00;99.90;;;;;;10129252;28;20024;-67
2023/01/10 15:35:38;;;;;;;3.35;1.13;;;9.00;99.90;;;;;;10137293;28;20016;-69
2023/01/10 15:40:32;;;;;;;3.22;1.23;;;8.90;99.90;;;;;;10132532;28;20048;-67
2023/01/10 15:45:36;;;;;;;4.80;1.20;;;8.90;99.90;;;;;;10129676;28;20021;-69
2023/01/10 15:50:30;;;;;;;2.00;0.73;;;8.80;99.90;;;;;;10136163;28;20074;-70
2023/01/10 15:55:43;;;;;;;2.33;0.90;;;8.80;99.90;;;;;;10131675;28;20356;-70
2023/01/10 16:00:33;;;;;;;4.63;0.90;;;8.70;99.90;;;;;;10130662;28;20029;-68
2023/01/10 16:05:24;;;;;;;6.68;1.35;;;8.60;99.90;;;;;;10130814;28;20107;-71
2023/01/10 16:10:18;;;;;;;6.55;2.25;;;8.60;99.90;;;;;;10129572;28;20113;-71
2023/01/10 16:15:17;;;;;;;2.85;2.05;;;8.70;99.90;;;;;;10131310;28;20103;-73
2023/01/10 16:20:13;;;;;;;1.88;1.73;;;8.70;99.90;;;;;;10135083;28;20107;-70
2023/01/10 16:25:04;;;;;;;5.23;1.83;;;8.70;99.90;;;;;;10134717;28;20029;-70
2023/01/10 16:29:55;;;;;;;3.78;1.70;;;8.70;99.90;;;;;;10132517;28;20031;-75
2023/01/10 16:34:46;;;;;;;2.95;1.50;;;8.70;99.90;;;;;;10128856;28;20059;-74
2023/01/10 16:39:37;;;;;;;3.72;1.10;;;8.60;99.90;;;;;;10128708;28;20036;-71
2023/01/10 16:44:28;;;;;;;5.28;1.55;;;8.60;99.90;;;;;;10131314;28;20027;-68
2023/01/10 16:49:20;;;;;;;3.95;1.08;;;8.60;99.90;;;;;;10134678;28;20244;-65
2023/01/10 16:54:20;;;;;;;3.35;1.55;;;8.60;99.90;;;;;;10130150;28;20020;-68
2023/01/10 16:59:12;;;;;;;3.63;1.58;;;8.60;99.90;;;;;;10120219;28;20167;-77
2023/01/10 17:04:05;;;;;;;4.75;1.88;;;8.60;99.90;;;;;;10137431;28;20071;-71
2023/01/10 17:08:56;;;;;;;3.88;1.75;;;8.60;99.90;;;;;;10136816;28;20102;-76
2023/01/10 17:13:47;;;;;;;5.50;1.27;;;8.60;99.90;;;;;;10127182;28;20083;-71
2023/01/10 17:18:38;;;;;;;5.00;1.38;;;8.60;99.90;;;;;;10118799;28;20029;-76
2023/01/10 17:23:29;;;;;;;2.75;1.23;;;8.60;99.90;;;;;;10112454;28;20493;-70
2023/01/10 17:28:20;;;;;;;2.22;0.93;;;8.60;99.90;;;;;;10133844;28;20033;-72
2023/01/10 17:33:11;;;;;;;6.03;1.98;;;8.60;99.90;;;;;;10130710;28;20040;-69
2023/01/10 17:38:01;;;;;;;5.63;1.00;;;8.50;99.90;;;;;;10130851;28;20477;-74
2023/01/10 17:42:52;;;;;;;8.35;1.42;;;8.60;99.90;;;;;;10123705;28;20058;-71
2023/01/10 17:47:42;;;;;;;6.05;1.50;;;8.60;99.90;;;;;;10135518;28;20035;-71
2023/01/10 17:52:33;;;;;;;9.73;1.55;;;8.60;99.90;;;;;;10135223;28;20040;-72
2023/01/10 17:57:24;;;;;;;3.47;1.35;;;8.60;99.90;;;;;;10136675;28;20028;-73
2023/01/10 18:02:16;;;;;;;2.10;1.08;;;8.60;99.90;;;;;;10132319;28;20037;-70
2023/01/10 18:07:07;;;;;;;4.88;1.40;;;8.50;99.90;;;;;;10135889;28;20097;-74
2023/01/10 18:11:58;;;;;;;4.70;1.35;;;8.50;99.90;;;;;;10135693;28;20128;-68
2023/01/10 18:16:48;;;;;;;7.80;2.35;;;8.50;99.90;;;;;;10136385;28;20144;-70
2023/01/10 18:21:39;;;;;;;2.05;1.20;;;8.40;99.90;;;;;;10142315;28;20040;-71
2023/01/10 18:26:30;;;;;;;1.70;1.30;;;8.40;99.90;;;;;;10136412;28;20431;-71
2023/01/10 18:31:21;;;;;;;3.95;1.20;;;8.40;99.90;;;;;;10136294;28;20031;-70
2023/01/10 18:36:15;;;;;;;4.10;1.75;;;8.40;99.90;;;;;;10138338;28;20491;-70
2023/01/10 18:41:05;;;;;;;4.10;1.50;;;8.40;99.90;;;;;;10128092;28;20052;-71
2023/01/10 18:46:04;;;;;;;3.15;1.50;;;8.40;99.90;;;;;;10134806;28;20403;-72
2023/01/10 18:50:57;;;;;;;4.97;1.42;;;8.40;99.90;;;;;;10125409;28;20056;-68
2023/01/10 18:55:59;;;;;;;3.75;1.70;;;8.30;99.90;;;;;;10124082;28;20021;-68
2023/01/10 19:00:49;;;;;;;2.83;1.55;;;8.40;99.90;;;;;;10134055;28;20033;-67
2023/01/10 19:05:40;;;;;;;4.60;2.35;;;8.40;99.90;;;;;;10135421;28;20025;-69
2023/01/10 19:10:30;;;;;;;4.97;1.90;;;8.40;99.90;;;;;;10126557;28;20542;-71
2023/01/10 19:15:21;;;;;;;2.80;1.52;;;8.40;99.90;;;;;;10139388;28;20051;-70
2023/01/10 19:20:12;;;;;;;3.72;1.60;;;8.40;99.90;;;;;;10136721;28;20037;-67
2023/01/10 19:25:03;;;;;;;6.20;2.33;;;8.40;99.90;;;;;;10132381;28;20025;-68
2023/01/10 19:29:54;;;;;;;4.90;1.48;;;8.40;99.90;;;;;;10127269;28;20399;-68
2023/01/10 19:34:45;;;;;;;5.95;1.73;;;8.50;99.90;;;;;;10139308;28;20085;-69
2023/01/10 19:39:36;;;;;;;3.25;1.33;;;8.40;99.90;;;;;;10141409;28;20063;-70
2023/01/10 19:44:27;;;;;;;4.80;1.50;;;8.50;99.90;;;;;;10133299;28;20028;-70
2023/01/10 19:49:18;;;;;;;3.60;1.20;;;8.50;99.90;;;;;;10139280;28;20023;-69
2023/01/10 19:54:09;;;;;;;2.33;0.90;;;8.40;99.90;;;;;;10135284;28;20035;-66
2023/01/10 19:59:00;;;;;;;3.50;1.58;;;8.50;99.90;;;;;;10137932;28;20032;-68
2023/01/10 20:03:52;;;;;;;5.72;1.83;;;8.50;99.90;;;;;;10137280;28;20035;-69
2023/01/10 20:08:47;;;;;;;2.70;1.08;;;8.60;99.90;;;;;;10134965;28;20039;-73
2023/01/10 20:13:43;;;;;;;3.73;1.20;;;8.60;99.90;;;;;;10137154;28;20372;-70
2023/01/10 20:18:34;;;;;;;5.03;1.30;;;8.60;99.90;;;;;;10132958;28;20041;-70
2023/01/10 20:23:25;;;;;;;2.28;1.00;;;8.60;99.90;;;;;;10134247;28;20020;-71
2023/01/10 20:28:15;;;;;;;5.28;1.52;;;8.60;99.90;;;;;;10133930;28;20551;-68
2023/01/10 20:33:06;;;;;;;3.67;1.20;;;8.60;99.90;;;;;;10130032;28;20069;-68
2023/01/10 20:37:56;;;;;;;5.13;1.17;;;8.60;99.90;;;;;;10133451;28;20112;-70
2023/01/10 20:42:50;;;;;;;4.22;0.90;;;8.70;99.90;;;;;;10120041;28;20028;-72
2023/01/10 20:47:41;;;;;;;4.03;1.25;;;8.70;99.90;;;;;;10134410;28;20108;-71
2023/01/10 20:52:32;;;;;;;6.88;3.00;;;8.70;99.90;;;;;;10131707;28;20570;-70
2023/01/10 20:57:22;;;;;;;3.10;1.55;;;8.70;99.90;;;;;;10132203;28;20033;-69
2023/01/10 21:02:13;;;;;;;3.03;1.75;;;8.70;99.90;;;;;;10123356;28;20143;-69
2023/01/10 21:07:05;;;;;;;1.65;1.00;;;8.80;99.90;;;;;;10121948;28;20016;-68
2023/01/10 21:11:56;;;;;;;2.03;1.10;;;8.70;99.90;;;;;;10117093;28;20043;-71
2023/01/10 21:16:48;;;;;;;3.08;1.98;;;8.70;99.90;;;;;;10108645;28;20033;-71
2023/01/10 21:21:39;;;;;;;7.63;1.45;;;8.70;99.90;;;;;;10132053;28;20508;-71
2023/01/10 21:26:30;;;;;;;4.03;1.02;;;8.70;99.90;;;;;;10121023;28;20032;-70
2023/01/10 21:31:21;;;;;;;6.13;1.45;;;8.70;99.90;;;;;;10141393;28;20020;-70
2023/01/10 21:36:12;;;;;;;3.13;1.00;;;8.70;99.90;;;;;;10131131;28;20040;-70
2023/01/10 21:41:08;;;;;;;3.92;1.20;;;8.80;99.90;;;;;;10125091;28;20036;-71
2023/01/10 21:46:00;;;;;;;1.77;0.80;;;8.80;99.90;;;;;;10133369;28;20033;-71
2023/01/10 21:50:51;;;;;;;2.10;1.02;;;8.80;99.90;;;;;;10133626;28;20102;-72
2023/01/10 21:55:42;;;;;;;1.65;0.95;;;8.80;99.90;;;;;;10123035;28;20029;-71
2023/01/10 22:00:34;;;;;;;1.75;0.98;;;8.80;99.90;;;;;;10131605;28;20051;-71
2023/01/10 22:05:25;;;;;;;1.73;0.90;;;8.90;99.90;;;;;;10142552;28;20073;-71
2023/01/10 22:10:16;;;;;;;4.13;1.27;;;8.80;99.90;;;;;;10126984;28;20133;-71
2023/01/10 22:15:11;;;;;;;2.85;1.08;;;8.80;99.90;;;;;;10126649;28;20475;-72
2023/01/10 22:20:02;;;;;;;3.60;1.20;;;8.80;99.90;;;;;;10130296;28;20079;-70
2023/01/10 22:24:55;;;;;;;2.58;1.00;;;8.80;99.90;;;;;;10141395;28;20094;-70
2023/01/10 22:29:46;;;;;;;2.65;1.02;;;8.90;99.90;;;;;;10119631;28;20024;-69
2023/01/10 22:34:37;;;;;;;1.88;0.98;;;8.90;99.90;;;;;;10128590;28;20028;-71
2023/01/10 22:39:28;;;;;;;1.40;1.17;;;9.00;99.90;;;;;;10125416;28;20036;-71
2023/01/10 22:44:24;;;;;;;2.15;1.50;;;9.00;99.90;;;;;;10140224;28;20016;-70
2023/01/10 22:49:15;;;;;;;1.45;0.88;;;8.90;99.90;;;;;;10140061;28;20085;-70
2023/01/10 22:54:06;;;;;;;2.28;1.63;;;9.00;99.90;;;;;;10138817;28;20453;-71
2023/01/10 22:58:57;;;;;;;1.48;0.60;;;9.00;99.90;;;;;;10138561;28;20049;-71
2023/01/10 23:03:48;;;;;;;1.25;0.77;;;9.00;99.90;;;;;;10138241;28;20029;-69
2023/01/10 23:08:40;;;;;;;1.98;0.63;;;9.00;99.90;;;;;;10138375;28;20040;-69
2023/01/10 23:13:30;;;;;;;1.80;0.90;;;9.00;99.90;;;;;;10130056;28;20049;-70
2023/01/10 23:18:21;;;;;;;3.22;0.82;;;9.00;99.90;;;;;;10140183;28;20462;-71
2023/01/10 23:23:12;;;;;;;2.35;0.82;;;9.00;99.90;;;;;;10138973;28;20032;-70
2023/01/10 23:28:03;;;;;;;2.85;0.85;;;9.00;99.90;;;;;;10135176;28;20017;-69
2023/01/10 23:32:54;;;;;;;3.15;1.02;;;8.90;99.90;;;;;;10137977;28;20024;-70
2023/01/10 23:37:45;;;;;;;1.38;0.80;;;8.90;99.90;;;;;;10137165;28;20116;-70
2023/01/10 23:42:35;;;;;;;2.60;1.13;;;8.90;99.90;;;;;;10126902;28;20103;-70
2023/01/10 23:47:26;;;;;;;1.88;1.10;;;8.90;99.90;;;;;;10138392;28;20167;-70
2023/01/10 23:52:17;;;;;;;1.83;1.25;;;8.90;99.90;;;;;;10137039;28;20534;-69
2023/01/10 23:57:09;;;;;;;1.38;0.50;;;9.00;99.90;;;;;;10134804;28;20111;-70
